Time;durP1;ratioP1;P1;durP2;ratioP2;P2;SDS_P1;SDS_P2;PMS_P1;PMS_P2;Temp;Humidity;BMP_temperature;BMP_pressure;BME280_temperature;BME280_humidity;BME280_pressure;Samples;Min_cycle;Max_cycle;Signal;HPM_P1;HPM_P2
2023/10/13 00:01:59;;;;;;;10.48;6.72;;;14.00;99.90;;;;;;5055276;28;20045;-76
2023/10/13 00:04:29;;;;;;;10.20;7.15;;;14.60;99.90;;;;;;5050206;28;20052;-78
2023/10/13 00:06:59;;;;;;;9.93;6.28;;;14.50;99.90;;;;;;5056729;28;20464;-77
2023/10/13 00:09:32;;;;;;;10.63;7.40;;;14.40;99.90;;;;;;5059163;28;20178;-77
2023/10/13 00:12:01;;;;;;;11.02;7.47;;;14.40;99.90;;;;;;5063466;28;20062;-78
2023/10/13 00:14:51;;;;;;;8.63;6.53;;;14.80;99.90;;;;;;5059032;28;20040;-77
2023/10/13 00:17:20;;;;;;;8.73;6.93;;;14.70;99.90;;;;;;5058985;28;20040;-77
2023/10/13 00:19:46;;;;;;;8.35;6.18;;;14.40;99.90;;;;;;5041144;28;20053;-77
2023/10/13 00:22:15;;;;;;;8.27;6.53;;;14.60;99.90;;;;;;5064320;28;20052;-78
2023/10/13 00:24:42;;;;;;;6.88;5.53;;;14.90;99.90;;;;;;5041992;28;20080;-77
2023/10/13 00:27:24;;;;;;;8.05;6.20;;;15.10;99.90;;;;;;5064972;28;20041;-77
2023/10/13 00:29:50;;;;;;;9.07;7.35;;;14.70;99.90;;;;;;5043737;28;20150;-77
2023/10/13 00:32:20;;;;;;;9.52;7.05;;;15.20;99.90;;;;;;5039939;28;20579;-77
2023/10/13 00:34:45;;;;;;;9.13;7.22;;;15.20;99.90;;;;;;5063030;28;20041;-77
2023/10/13 00:37:27;;;;;;;9.27;7.18;;;14.90;99.90;;;;;;5037726;28;20124;-77
2023/10/13 00:39:56;;;;;;;11.45;8.02;;;14.90;99.90;;;;;;5061244;28;20053;-77
2023/10/13 00:42:50;;;;;;;10.55;8.15;;;14.80;99.90;;;;;;5053051;28;20083;-77
2023/10/13 00:45:16;;;;;;;10.07;8.13;;;15.50;99.90;;;;;;5056150;28;20037;-77
2023/10/13 00:47:50;;;;;;;9.23;8.13;;;15.10;99.90;;;;;;5044725;28;20045;-77
2023/10/13 00:50:17;;;;;;;9.18;7.57;;;14.90;99.90;;;;;;5070987;28;20040;-77
2023/10/13 00:52:46;;;;;;;10.02;7.68;;;15.00;99.90;;;;;;5053230;28;20479;-77
2023/10/13 00:55:14;;;;;;;8.63;6.80;;;15.20;99.90;;;;;;5048745;28;20064;-77
2023/10/13 00:57:40;;;;;;;8.95;7.00;;;15.80;99.90;;;;;;5046245;28;20049;-77
2023/10/13 01:00:47;;;;;;;11.13;9.02;;;15.20;99.90;;;;;;5064162;28;20098;-78
2023/10/13 01:03:06;;;;;;;11.80;9.57;;;15.80;99.90;;;;;;5061984;28;20045;-77
2023/10/13 01:05:33;;;;;;;11.07;8.68;;;15.50;99.90;;;;;;5079792;28;20040;-79
2023/10/13 01:08:03;;;;;;;8.43;7.45;;;15.40;99.90;;;;;;5048357;28;20142;-77
2023/10/13 01:10:32;;;;;;;10.35;8.57;;;15.60;99.90;;;;;;5067677;28;20065;-77
2023/10/13 01:13:02;;;;;;;10.45;8.98;;;16.00;99.90;;;;;;5078103;28;20076;-77
2023/10/13 01:15:30;;;;;;;11.63;9.13;;;15.90;99.90;;;;;;5051527;28;20407;-78
2023/10/13 01:18:16;;;;;;;10.40;8.63;;;15.60;99.90;;;;;;5053067;28;20115;-77
2023/10/13 01:20:45;;;;;;;11.90;9.23;;;16.00;99.90;;;;;;5067931;28;20048;-77
2023/10/13 01:23:28;;;;;;;12.55;9.95;;;16.10;99.90;;;;;;5062672;28;20055;-77
2023/10/13 01:25:58;;;;;;;15.15;12.32;;;16.00;99.90;;;;;;5052435;28;20044;-78
2023/10/13 01:28:24;;;;;;;13.93;10.57;;;15.60;99.90;;;;;;5064389;28;20118;-78
2023/10/13 01:30:50;;;;;;;11.63;9.57;;;16.30;99.90;;;;;;5070604;28;20049;-77
2023/10/13 01:33:17;;;;;;;13.02;10.75;;;15.80;99.90;;;;;;5057830;28;20052;-78
2023/10/13 01:35:47;;;;;;;14.43;10.27;;;16.40;99.90;;;;;;5068722;28;20060;-78
2023/10/13 01:38:14;;;;;;;12.13;9.35;;;15.80;99.90;;;;;;5068472;28;20044;-78
2023/10/13 01:40:39;;;;;;;10.45;8.52;;;15.90;99.90;;;;;;5041871;28;20448;-78
2023/10/13 01:43:10;;;;;;;9.15;7.90;;;16.40;99.90;;;;;;5047696;28;20075;-78
2023/10/13 01:45:39;;;;;;;8.25;7.28;;;16.40;99.90;;;;;;5061608;28;20440;-78
2023/10/13 01:48:07;;;;;;;8.13;6.97;;;15.70;99.90;;;;;;5067359;28;20051;-78
2023/10/13 01:50:36;;;;;;;8.75;7.57;;;16.40;99.90;;;;;;5045122;28;20040;-78
2023/10/13 01:53:17;;;;;;;7.78;6.97;;;16.10;99.90;;;;;;5062319;28;20044;-78
2023/10/13 01:55:43;;;;;;;8.85;7.57;;;16.60;99.90;;;;;;5028976;28;20139;-78
2023/10/13 01:58:16;;;;;;;11.15;8.63;;;16.00;99.90;;;;;;5053396;28;20041;-78
2023/10/13 02:00:43;;;;;;;9.13;7.45;;;16.30;99.90;;;;;;5065195;28;20102;-78
2023/10/13 02:03:16;;;;;;;8.63;6.93;;;15.80;99.90;;;;;;5057780;28;20037;-78
2023/10/13 02:05:49;;;;;;;6.43;5.75;;;16.70;99.90;;;;;;5037861;28;20549;-78
2023/10/13 02:08:25;;;;;;;7.78;6.30;;;15.90;99.90;;;;;;5052213;28;20147;-78
2023/10/13 02:10:55;;;;;;;6.55;5.75;;;16.70;99.90;;;;;;5036318;28;20044;-78
2023/10/13 02:13:22;;;;;;;8.20;6.55;;;16.60;99.90;;;;;;5058255;28;20071;-76
2023/10/13 02:15:51;;;;;;;9.75;7.03;;;16.00;99.90;;;;;;5046447;28;20094;-76
2023/10/13 02:19:04;;;;;;;7.15;5.97;;;16.70;99.90;;;;;;5051543;28;20045;-76
2023/10/13 02:21:12;;;;;;;5.75;5.00;;;15.90;99.90;;;;;;5053119;28;20059;-76
2023/10/13 02:23:45;;;;;;;6.93;5.30;;;15.90;99.90;;;;;;5045899;28;20049;-76
2023/10/13 02:26:16;;;;;;;6.38;5.07;;;16.00;99.90;;;;;;5060137;28;20044;-76
2023/10/13 02:28:51;;;;;;;4.95;4.45;;;16.60;99.90;;;;;;5057891;28;20511;-76
2023/10/13 02:31:19;;;;;;;5.85;4.75;;;16.10;99.90;;;;;;5057695;28;20128;-75
2023/10/13 02:33:44;;;;;;;6.75;5.47;;;16.40;99.90;;;;;;5065577;28;20052;-75
2023/10/13 02:36:22;;;;;;;8.63;7.43;;;16.70;99.90;;;;;;5055464;28;20040;-75
2023/10/13 02:38:50;;;;;;;7.32;6.15;;;16.30;99.90;;;;;;5066192;28;20036;-75
2023/10/13 02:41:28;;;;;;;6.53;5.65;;;16.50;99.90;;;;;;5062210;28;20036;-75
2023/10/13 02:43:55;;;;;;;6.20;5.10;;;16.20;99.90;;;;;;5054085;28;20055;-77
2023/10/13 02:46:22;;;;;;;6.28;5.68;;;16.60;99.90;;;;;;5057502;28;20048;-77
2023/10/13 02:48:57;;;;;;;5.80;4.75;;;16.50;99.90;;;;;;5051424;28;20128;-78
2023/10/13 02:51:31;;;;;;;6.25;4.63;;;16.30;99.90;;;;;;5063824;28;20047;-78
2023/10/13 02:54:02;;;;;;;6.32;4.85;;;16.40;99.90;;;;;;5061201;28;20045;-78
2023/10/13 02:56:29;;;;;;;6.07;5.30;;;16.30;99.90;;;;;;5039573;28;20052;-77
2023/10/13 02:59:04;;;;;;;5.90;5.30;;;16.00;99.90;;;;;;5043469;28;20059;-77
2023/10/13 03:01:34;;;;;;;5.78;5.18;;;16.20;99.90;;;;;;5061391;28;20510;-77
2023/10/13 03:04:02;;;;;;;4.57;4.18;;;16.80;99.90;;;;;;5066078;28;20725;-77
2023/10/13 03:06:34;;;;;;;4.95;4.47;;;16.60;99.90;;;;;;5061440;28;20059;-77
2023/10/13 03:09:18;;;;;;;5.65;4.82;;;16.30;99.90;;;;;;5067509;28;20510;-77
2023/10/13 03:11:50;;;;;;;8.48;6.90;;;16.50;99.90;;;;;;5066682;28;20082;-77
2023/10/13 03:14:32;;;;;;;10.10;7.47;;;16.00;99.90;;;;;;5064435;28;20028;-77
2023/10/13 03:17:06;;;;;;;8.68;6.53;;;16.30;99.90;;;;;;5067654;28;20113;-77
2023/10/13 03:19:38;;;;;;;7.80;7.00;;;16.70;99.90;;;;;;5065939;28;20060;-77
2023/10/13 03:22:16;;;;;;;8.25;6.90;;;16.10;99.90;;;;;;5035670;28;20142;-77
2023/10/13 03:24:46;;;;;;;7.78;6.95;;;16.90;99.90;;;;;;5063157;28;20117;-77
2023/10/13 03:27:17;;;;;;;13.98;10.65;;;16.80;99.90;;;;;;5059995;28;20040;-77
2023/10/13 03:29:44;;;;;;;11.45;8.73;;;16.40;99.90;;;;;;5042042;28;20052;-77
2023/10/13 03:32:11;;;;;;;11.85;10.18;;;16.30;99.90;;;;;;5058765;28;20412;-77
2023/10/13 03:34:46;;;;;;;12.90;9.60;;;16.40;99.90;;;;;;5046976;28;20048;-77
2023/10/13 03:37:18;;;;;;;8.98;7.75;;;16.30;99.90;;;;;;5059357;28;21535;-77
2023/10/13 03:39:45;;;;;;;10.85;8.20;;;16.30;99.90;;;;;;5069030;28;20040;-77
2023/10/13 03:42:18;;;;;;;14.13;10.32;;;17.10;99.90;;;;;;5044780;28;20048;-77
2023/10/13 03:44:47;;;;;;;10.20;8.80;;;16.20;99.90;;;;;;5065601;28;20527;-77
2023/10/13 03:47:26;;;;;;;9.63;8.32;;;16.60;99.90;;;;;;5069548;28;20390;-77
2023/10/13 03:50:15;;;;;;;8.25;6.90;;;16.10;99.90;;;;;;5067991;28;20033;-77
2023/10/13 03:52:40;;;;;;;7.13;5.90;;;17.10;99.90;;;;;;5042492;28;20052;-77
2023/10/13 03:55:07;;;;;;;6.93;6.20;;;16.70;99.90;;;;;;5056965;28;20033;-77
2023/10/13 03:57:34;;;;;;;8.10;6.28;;;16.90;99.90;;;;;;5047079;28;20117;-77
2023/10/13 04:00:08;;;;;;;6.68;5.97;;;17.10;99.90;;;;;;5028138;28;20053;-77
2023/10/13 04:02:33;;;;;;;5.30;4.80;;;16.50;99.90;;;;;;5054450;28;20492;-77
2023/10/13 04:05:07;;;;;;;5.68;4.60;;;16.40;99.90;;;;;;5057245;28;20115;-77
2023/10/13 04:07:39;;;;;;;4.60;4.20;;;16.00;99.90;;;;;;5036226;28;20036;-77
2023/10/13 04:11:49;;;;;;;5.50;5.00;;;17.10;99.90;;;;;;5055735;28;20048;-77
2023/10/13 04:14:20;;;;;;;4.32;3.92;;;16.60;99.90;;;;;;5058255;28;20033;-75
2023/10/13 04:21:41;;;;;;;7.75;6.05;;;16.90;99.90;;;;;;5056260;28;20468;-74
2023/10/13 04:24:23;;;;;;;6.50;5.90;;;16.40;99.90;;;;;;5052993;28;20045;-74
2023/10/13 04:32:32;;;;;;;6.60;5.72;;;16.20;99.90;;;;;;5050632;28;20111;-75
2023/10/13 04:35:17;;;;;;;6.40;5.80;;;16.80;99.90;;;;;;5036596;28;20136;-75
2023/10/13 04:38:01;;;;;;;5.63;5.13;;;16.60;99.90;;;;;;5033126;28;20037;-74
2023/10/13 04:40:34;;;;;;;6.22;5.30;;;16.10;99.90;;;;;;5057162;28;20049;-74
2023/10/13 04:43:32;;;;;;;5.45;4.55;;;16.40;99.90;;;;;;5036146;28;20063;-75
2023/10/13 04:45:55;;;;;;;6.07;5.07;;;16.60;99.90;;;;;;5048217;28;20437;-75
2023/10/13 04:51:18;;;;;;;6.05;5.00;;;17.10;99.90;;;;;;5053372;28;20147;-75
2023/10/13 04:59:17;;;;;;;6.68;5.80;;;16.30;99.90;;;;;;5053156;28;20037;-75
2023/10/13 05:05:11;;;;;;;6.32;5.70;;;16.80;99.90;;;;;;5060101;28;20169;-75
2023/10/13 06:29:55;;;;;;;3.20;2.90;;;15.70;99.90;;;;;;5066180;28;20409;-74
2023/10/13 06:32:25;;;;;;;3.00;2.72;;;15.60;99.90;;;;;;5054724;28;20032;-74
2023/10/13 06:34:57;;;;;;;3.50;3.20;;;16.70;99.90;;;;;;5062693;28;20116;-74
2023/10/13 06:39:56;;;;;;;3.28;2.97;;;15.90;99.90;;;;;;5070863;28;20126;-74
2023/10/13 06:42:28;;;;;;;3.38;3.08;;;16.60;99.90;;;;;;5051316;28;20036;-74
2023/10/13 06:45:00;;;;;;;3.15;2.85;;;16.20;99.90;;;;;;5066435;28;20463;-74
2023/10/13 06:47:27;;;;;;;3.25;2.90;;;15.70;99.90;;;;;;5060439;28;20057;-74
2023/10/13 06:49:54;;;;;;;3.63;3.33;;;16.10;99.90;;;;;;5057027;28;20141;-74
2023/10/13 06:52:22;;;;;;;3.10;2.80;;;16.00;99.90;;;;;;5051033;28;20041;-74
2023/10/13 06:54:53;;;;;;;3.13;2.63;;;16.60;99.90;;;;;;5055868;28;20360;-74
2023/10/13 06:57:22;;;;;;;2.75;2.40;;;16.50;99.90;;;;;;5039386;28;20076;-74
2023/10/13 06:59:48;;;;;;;4.38;2.70;;;16.90;99.90;;;;;;5041433;28;20055;-76
2023/10/13 07:02:23;;;;;;;2.42;2.22;;;16.00;99.90;;;;;;5056773;28;20048;-76
2023/10/13 07:04:56;;;;;;;3.40;2.53;;;16.50;99.90;;;;;;5083349;28;20052;-78
2023/10/13 07:07:23;;;;;;;2.75;2.30;;;17.10;99.90;;;;;;5045269;28;20487;-77
2023/10/13 07:09:55;;;;;;;3.90;2.67;;;16.80;99.90;;;;;;5048276;28;20410;-76
2023/10/13 07:12:27;;;;;;;4.13;2.72;;;17.00;99.90;;;;;;5067635;28;20090;-76
2023/10/13 07:15:44;;;;;;;3.08;2.50;;;17.30;99.90;;;;;;5037674;28;20040;-76
2023/10/13 07:17:40;;;;;;;5.10;2.90;;;16.20;99.90;;;;;;5060212;28;20413;-76
2023/10/13 07:20:23;;;;;;;4.80;2.75;;;16.70;99.90;;;;;;5064371;28;20091;-76
2023/10/13 07:23:06;;;;;;;4.68;2.95;;;17.00;99.90;;;;;;5049486;28;20618;-76
2023/10/13 07:25:33;;;;;;;6.18;3.15;;;16.80;99.90;;;;;;5055426;28;20084;-76
2023/10/13 07:28:08;;;;;;;4.13;2.95;;;16.30;99.90;;;;;;5070209;28;20495;-76
2023/10/13 07:31:11;;;;;;;3.92;2.75;;;17.00;99.90;;;;;;5048691;28;20062;-75
2023/10/13 07:33:35;;;;;;;5.07;2.78;;;16.60;99.90;;;;;;5065680;28;20040;-75
2023/10/13 07:36:27;;;;;;;6.40;3.03;;;16.00;99.90;;;;;;5065154;28;20704;-75
2023/10/13 07:39:28;;;;;;;7.45;3.15;;;16.00;99.90;;;;;;5045821;28;20048;-75
2023/10/13 07:41:51;;;;;;;9.18;3.42;;;16.10;99.90;;;;;;5054362;28;20519;-76
2023/10/13 07:44:24;;;;;;;5.72;3.30;;;16.90;99.90;;;;;;5043292;28;20445;-76
2023/10/13 07:47:02;;;;;;;4.90;2.55;;;16.90;99.90;;;;;;5060555;28;20151;-76
2023/10/13 07:49:36;;;;;;;5.22;2.85;;;16.70;99.90;;;;;;5048709;28;20044;-76
2023/10/13 07:52:40;;;;;;;5.38;2.83;;;16.50;99.90;;;;;;5056266;28;20130;-76
2023/10/13 07:55:10;;;;;;;8.40;3.42;;;16.10;99.90;;;;;;5050405;28;20032;-76
2023/10/13 07:57:54;;;;;;;5.82;3.00;;;16.40;99.90;;;;;;5047435;28;20075;-76
2023/10/13 08:03:19;;;;;;;5.32;3.08;;;16.10;99.90;;;;;;5045331;28;20052;-75
2023/10/13 08:06:07;;;;;;;3.65;2.65;;;16.90;99.90;;;;;;5056472;28;20615;-75
2023/10/13 08:08:39;;;;;;;5.90;2.97;;;16.90;99.90;;;;;;5060875;28;20120;-75
2023/10/13 08:11:11;;;;;;;6.50;3.00;;;16.00;99.90;;;;;;5041624;28;20037;-76
2023/10/13 08:13:53;;;;;;;5.65;3.10;;;17.00;99.90;;;;;;5042494;28;20036;-76
2023/10/13 08:19:18;;;;;;;3.50;2.53;;;16.90;99.90;;;;;;5054353;28;20044;-75
2023/10/13 08:22:23;;;;;;;3.72;2.38;;;16.00;99.90;;;;;;5066280;28;20044;-75
2023/10/13 08:30:25;;;;;;;7.10;3.03;;;17.20;99.90;;;;;;5062370;28;20039;-76
2023/10/13 08:33:17;;;;;;;5.75;2.85;;;16.70;99.90;;;;;;5065704;28;20052;-76
2023/10/13 08:43:12;;;;;;;4.55;2.90;;;16.70;99.90;;;;;;5053301;28;20032;-75
2023/10/13 09:01:48;;;;;;;5.53;3.35;;;17.20;99.90;;;;;;5064543;28;20051;-75
2023/10/13 09:09:35;;;;;;;6.60;4.03;;;16.80;99.90;;;;;;5073064;28;20514;-75
2023/10/13 09:12:08;;;;;;;6.50;3.42;;;16.80;99.90;;;;;;5064762;28;20037;-74
2023/10/13 09:14:43;;;;;;;7.03;4.47;;;17.20;99.90;;;;;;5046424;28;20040;-75
2023/10/13 09:17:12;;;;;;;7.32;4.00;;;17.60;99.90;;;;;;5062475;28;20044;-74
2023/10/13 09:19:48;;;;;;;6.78;4.32;;;16.80;99.90;;;;;;5051411;28;20049;-75
2023/10/13 09:22:27;;;;;;;8.57;4.63;;;17.90;99.90;;;;;;5065202;28;20083;-75
2023/10/13 09:24:58;;;;;;;12.48;5.68;;;17.80;99.90;;;;;;5062743;28;20052;-75
2023/10/13 09:27:33;;;;;;;8.70;4.68;;;17.50;99.90;;;;;;5050948;28;20124;-75
2023/10/13 09:32:48;;;;;;;7.28;4.47;;;17.70;99.90;;;;;;5062593;28;20040;-75
2023/10/13 09:35:27;;;;;;;9.60;4.90;;;17.60;99.90;;;;;;5069029;28;20116;-76
2023/10/13 09:37:56;;;;;;;9.20;4.53;;;18.10;99.90;;;;;;5070647;28;20040;-76
2023/10/13 09:40:27;;;;;;;9.77;5.05;;;18.40;99.90;;;;;;5067761;28;20115;-76
2023/10/13 09:42:55;;;;;;;9.77;4.38;;;18.10;99.90;;;;;;5061394;28;20502;-76
2023/10/13 09:45:28;;;;;;;7.55;4.22;;;18.50;99.90;;;;;;5050805;28;20041;-76
2023/10/13 09:48:06;;;;;;;8.90;4.35;;;17.80;99.90;;;;;;5063650;28;20053;-75
2023/10/13 09:50:37;;;;;;;7.57;4.32;;;18.40;99.90;;;;;;5061688;28;20084;-76
2023/10/13 09:53:10;;;;;;;8.80;4.75;;;18.10;99.90;;;;;;5040029;28;20037;-75
2023/10/13 09:55:44;;;;;;;8.40;4.32;;;17.90;99.90;;;;;;5043666;28;20126;-76
2023/10/13 09:58:15;;;;;;;9.18;5.07;;;18.60;99.90;;;;;;5064013;28;20139;-76
2023/10/13 10:01:12;;;;;;;11.32;5.50;;;18.20;99.90;;;;;;5054642;28;20044;-76
2023/10/13 10:03:52;;;;;;;8.73;4.60;;;18.50;99.90;;;;;;5055090;28;20133;-76
2023/10/13 10:06:28;;;;;;;9.50;4.72;;;18.30;99.90;;;;;;5067370;28;20056;-77
2023/10/13 10:09:11;;;;;;;10.05;4.97;;;18.70;99.90;;;;;;5055320;28;20044;-78
2023/10/13 10:11:46;;;;;;;6.00;4.15;;;18.50;99.90;;;;;;5034784;28;20045;-77
2023/10/13 10:14:36;;;;;;;7.35;4.35;;;18.60;99.90;;;;;;5067531;28;20119;-78
2023/10/13 10:17:09;;;;;;;9.75;5.40;;;18.70;99.90;;;;;;5054601;28;20064;-78
2023/10/13 10:19:54;;;;;;;9.80;4.70;;;18.60;99.90;;;;;;5039836;28;20044;-76
2023/10/13 10:22:33;;;;;;;6.65;4.20;;;18.50;99.90;;;;;;5040863;28;20110;-76
2023/10/13 10:25:02;;;;;;;8.18;4.70;;;18.50;99.90;;;;;;5044729;28;20045;-76
2023/10/13 10:27:29;;;;;;;9.45;4.72;;;18.80;99.90;;;;;;5048207;28;20082;-76
2023/10/13 10:29:56;;;;;;;12.35;4.63;;;18.80;99.90;;;;;;5050851;28;20040;-76
2023/10/13 10:32:33;;;;;;;11.38;4.60;;;18.90;99.90;;;;;;5057785;28;20094;-77
2023/10/13 10:35:20;;;;;;;7.82;4.18;;;18.90;99.90;;;;;;5057003;28;20079;-77
2023/10/13 10:37:49;;;;;;;8.48;3.95;;;18.80;99.90;;;;;;5063714;28;20496;-76
2023/10/13 10:43:08;;;;;;;12.95;4.75;;;19.00;99.90;;;;;;5059257;28;20045;-77
2023/10/13 10:45:37;;;;;;;11.15;5.03;;;19.00;99.90;;;;;;5045174;28;20039;-81
2023/10/13 10:48:17;;;;;;;9.93;4.45;;;19.10;99.90;;;;;;5041702;28;20036;-77
2023/10/13 10:51:13;;;;;;;9.40;4.47;;;19.20;99.90;;;;;;5051284;28;20048;-77
2023/10/13 10:53:45;;;;;;;10.32;4.55;;;19.10;99.90;;;;;;5031299;28;20052;-77
2023/10/13 10:56:25;;;;;;;8.93;4.95;;;19.30;99.90;;;;;;5038565;28;20049;-77
2023/10/13 10:58:57;;;;;;;10.38;4.82;;;19.20;99.90;;;;;;5034070;28;20044;-77
2023/10/13 11:01:24;;;;;;;8.13;4.45;;;19.20;99.90;;;;;;5033482;28;20129;-77
2023/10/13 11:04:14;;;;;;;12.95;4.22;;;19.40;99.90;;;;;;5033586;28;20385;-77
2023/10/13 11:06:49;;;;;;;5.93;4.25;;;19.50;99.90;;;;;;5043559;28;20110;-77
2023/10/13 11:09:31;;;;;;;8.95;4.95;;;19.60;99.90;;;;;;5069818;28;20052;-77
2023/10/13 11:12:26;;;;;;;9.65;4.43;;;19.60;99.90;;;;;;5042676;28;20036;-77
2023/10/13 11:15:22;;;;;;;8.27;4.07;;;19.70;99.90;;;;;;5050508;28;20167;-77
2023/10/13 11:17:54;;;;;;;12.60;4.78;;;19.70;99.90;;;;;;5033435;28;20712;-77
2023/10/13 11:20:34;;;;;;;9.30;4.47;;;19.70;99.90;;;;;;5050301;28;20041;-77
2023/10/13 11:23:04;;;;;;;15.75;3.85;;;19.60;99.90;;;;;;5050329;28;20531;-78
2023/10/13 11:25:34;;;;;;;7.65;4.07;;;19.60;99.90;;;;;;5050395;28;20048;-77
2023/10/13 11:28:17;;;;;;;9.15;4.60;;;19.60;99.90;;;;;;5066023;28;20052;-77
2023/10/13 11:30:50;;;;;;;6.57;4.05;;;19.60;99.90;;;;;;5064417;28;20044;-77
2023/10/13 11:33:28;;;;;;;10.43;4.63;;;19.70;99.90;;;;;;5050032;28;20033;-77
2023/10/13 11:41:14;;;;;;;11.60;4.38;;;19.80;99.90;;;;;;5068219;28;20051;-78
2023/10/13 11:44:31;;;;;;;12.50;4.65;;;19.70;99.90;;;;;;5050036;28;20045;-77
2023/10/13 11:51:49;;;;;;;11.25;5.10;;;19.40;99.90;;;;;;5069749;28;20078;-76
2023/10/13 11:54:17;;;;;;;8.98;4.53;;;19.20;99.90;;;;;;5066419;28;20055;-76
2023/10/13 11:56:44;;;;;;;9.68;4.60;;;19.00;99.90;;;;;;5066181;28;20133;-77
2023/10/13 11:59:24;;;;;;;9.02;4.32;;;19.00;99.90;;;;;;5058250;28;20083;-77
2023/10/13 12:04:54;;;;;;;11.55;4.70;;;18.90;99.90;;;;;;5049878;28;20147;-77
2023/10/13 12:07:23;;;;;;;9.55;3.65;;;18.90;99.90;;;;;;5066396;28;20060;-77
2023/10/13 12:10:03;;;;;;;7.22;4.05;;;18.90;99.90;;;;;;5068202;28;20072;-76
2023/10/13 12:12:40;;;;;;;8.95;4.18;;;19.00;99.90;;;;;;5066580;28;20048;-77
2023/10/13 12:15:09;;;;;;;9.02;4.43;;;19.10;99.90;;;;;;5066037;28;20066;-77
2023/10/13 12:17:36;;;;;;;7.70;4.22;;;19.10;99.90;;;;;;5049258;28;20507;-77
2023/10/13 12:20:09;;;;;;;11.18;5.30;;;19.20;99.90;;;;;;5063231;28;20051;-77
2023/10/13 12:22:35;;;;;;;11.10;4.68;;;19.20;99.90;;;;;;5066127;28;20041;-77
2023/10/13 12:25:18;;;;;;;9.13;4.65;;;19.30;99.90;;;;;;5053188;28;20202;-77
2023/10/13 12:27:49;;;;;;;8.52;4.57;;;19.30;99.90;;;;;;5049448;28;20178;-78
2023/10/13 12:30:22;;;;;;;7.25;4.60;;;19.40;99.90;;;;;;5049189;28;20109;-78
2023/10/13 12:33:06;;;;;;;8.10;4.70;;;19.40;99.90;;;;;;5065262;28;20036;-78
2023/10/13 12:35:46;;;;;;;10.32;4.93;;;19.40;99.90;;;;;;5059370;28;20090;-77
2023/10/13 12:38:37;;;;;;;10.20;4.97;;;19.40;99.90;;;;;;5056363;28;20387;-77
2023/10/13 12:52:31;;;;;;;12.35;5.22;;;19.10;99.90;;;;;;5012121;28;20397;-77
2023/10/13 12:57:23;;;;;;;;;;;18.90;99.90;;;;;;5039507;28;20452;-78
2023/10/13 12:59:53;;;;;;;12.95;6.18;;;18.90;99.90;;;;;;5035932;28;20060;-77
2023/10/13 13:02:24;;;;;;;10.70;6.13;;;18.90;99.90;;;;;;5049221;28;20547;-77
2023/10/13 13:04:57;;;;;;;13.85;5.88;;;18.90;99.90;;;;;;5065161;28;20060;-77
2023/10/13 13:07:29;;;;;;;9.32;5.10;;;18.80;99.90;;;;;;5049120;28;20079;-77
2023/10/13 13:09:58;;;;;;;11.20;5.38;;;18.80;99.90;;;;;;5048416;28;20582;-78
2023/10/13 13:12:24;;;;;;;8.48;5.28;;;18.70;99.90;;;;;;5065906;28;20790;-77
2023/10/13 13:14:54;;;;;;;13.52;6.97;;;18.60;99.90;;;;;;5045216;28;20133;-77
2023/10/13 13:17:21;;;;;;;8.80;5.85;;;18.60;99.90;;;;;;5045607;28;20179;-77
2023/10/13 13:19:47;;;;;;;13.43;6.07;;;18.50;99.90;;;;;;5066052;28;20052;-77
2023/10/13 13:22:12;;;;;;;;;;;18.50;99.90;;;;;;5069224;28;20402;-76
2023/10/13 13:24:45;;;;;;;11.02;5.82;;;18.40;99.90;;;;;;5061712;28;19921;-77
2023/10/13 13:27:14;;;;;;;10.65;6.13;;;18.50;99.90;;;;;;5063303;28;20533;-77
2023/10/13 13:29:44;;;;;;;10.88;6.07;;;18.40;99.90;;;;;;5065385;28;20137;-77
2023/10/13 13:32:17;;;;;;;14.88;6.57;;;18.40;99.90;;;;;;5058992;28;20128;-77
2023/10/13 13:34:44;;;;;;;12.35;6.05;;;18.40;99.90;;;;;;5051974;28;20048;-77
2023/10/13 13:37:12;;;;;;;13.38;6.32;;;18.30;99.90;;;;;;5058371;28;20133;-77
2023/10/13 13:39:45;;;;;;;9.82;6.00;;;18.30;99.90;;;;;;5067796;28;20052;-77
2023/10/13 13:42:17;;;;;;;10.55;6.18;;;18.30;99.90;;;;;;5065716;28;20053;-76
2023/10/13 13:44:46;;;;;;;14.32;6.47;;;18.30;99.90;;;;;;5064198;28;20064;-77
2023/10/13 13:47:16;;;;;;;10.00;6.35;;;18.40;99.90;;;;;;5056577;28;20123;-77
2023/10/13 13:49:52;;;;;;;11.15;6.00;;;18.30;99.90;;;;;;5048031;28;20116;-77
2023/10/13 13:52:21;;;;;;;12.00;5.97;;;18.40;99.90;;;;;;5063998;28;20049;-77
2023/10/13 13:54:47;;;;;;;11.02;6.07;;;18.30;99.90;;;;;;5068679;28;20048;-77
2023/10/13 13:57:13;;;;;;;13.07;6.57;;;18.30;99.90;;;;;;5058664;28;20626;-77
2023/10/13 13:59:39;;;;;;;;;;;18.30;99.90;;;;;;5067178;28;20083;-77
2023/10/13 14:02:19;;;;;;;11.88;6.38;;;18.40;99.90;;;;;;5071815;28;19963;-77
2023/10/13 14:04:52;;;;;;;12.82;6.15;;;18.40;99.90;;;;;;5070261;28;20080;-77
2023/10/13 14:07:23;;;;;;;11.57;6.10;;;18.40;99.90;;;;;;5068632;28;20047;-77
2023/10/13 14:09:51;;;;;;;11.88;6.28;;;18.50;99.90;;;;;;5066324;28;20354;-76
2023/10/13 14:12:41;;;;;;;12.35;6.03;;;18.50;99.90;;;;;;5060697;28;20036;-77
2023/10/13 14:15:19;;;;;;;10.45;5.88;;;18.50;99.90;;;;;;5063987;28;20049;-77
2023/10/13 14:17:48;;;;;;;10.90;5.82;;;18.60;99.90;;;;;;5059741;28;20033;-77
2023/10/13 14:20:21;;;;;;;13.32;5.65;;;18.60;99.90;;;;;;5063112;28;20040;-77
2023/10/13 14:22:49;;;;;;;10.18;5.88;;;18.60;99.90;;;;;;5067478;28;20089;-77
2023/10/13 14:25:15;;;;;;;10.38;5.55;;;18.60;99.90;;;;;;5059167;28;20037;-77
2023/10/13 14:27:41;;;;;;;;;;;18.70;99.90;;;;;;5058614;28;20040;-78
2023/10/13 14:30:08;;;;;;;10.23;5.50;;;18.60;99.90;;;;;;5058724;28;19969;-78
2023/10/13 14:32:40;;;;;;;10.15;6.03;;;18.60;99.90;;;;;;5039834;28;20044;-78
2023/10/13 14:35:14;;;;;;;14.45;5.95;;;18.70;99.90;;;;;;5061521;28;20504;-78
2023/10/13 14:37:40;;;;;;;12.70;5.90;;;18.70;99.90;;;;;;5066098;28;20113;-78
2023/10/13 14:40:12;;;;;;;11.73;5.55;;;18.70;99.90;;;;;;5062088;28;20913;-78
2023/10/13 14:42:40;;;;;;;7.95;5.50;;;18.70;99.90;;;;;;5052518;28;20119;-78
2023/10/13 14:45:16;;;;;;;8.98;5.10;;;18.70;99.90;;;;;;5051086;28;20116;-79
2023/10/13 14:47:45;;;;;;;9.75;5.38;;;18.70;99.90;;;;;;5065525;28;20064;-79
2023/10/13 14:50:19;;;;;;;12.00;5.28;;;18.60;99.90;;;;;;5063447;28;20143;-79
2023/10/13 14:52:46;;;;;;;11.02;5.40;;;18.60;99.90;;;;;;5037856;28;20032;-78
2023/10/13 14:55:21;;;;;;;12.02;5.63;;;18.70;99.90;;;;;;5043392;28;20100;-79
2023/10/13 14:57:50;;;;;;;10.32;5.18;;;18.60;99.90;;;;;;5040895;28;20040;-79
2023/10/13 15:00:24;;;;;;;13.65;5.43;;;18.60;99.90;;;;;;5057631;28;20082;-78
2023/10/13 15:02:54;;;;;;;9.68;5.30;;;18.60;99.90;;;;;;5062139;28;20053;-78
2023/10/13 15:05:20;;;;;;;11.23;5.38;;;18.70;99.90;;;;;;5064704;28;20068;-78
2023/10/13 15:07:46;;;;;;;;;;;18.60;99.90;;;;;;5059765;28;20044;-80
2023/10/13 15:10:14;;;;;;;12.43;5.80;;;18.60;99.90;;;;;;5064065;28;19924;-78
2023/10/13 15:12:48;;;;;;;11.93;5.57;;;18.60;99.90;;;;;;5057808;28;21658;-79
2023/10/13 15:15:15;;;;;;;13.95;5.93;;;18.60;99.90;;;;;;5036899;28;20052;-78
2023/10/13 15:17:45;;;;;;;16.23;5.53;;;18.60;99.90;;;;;;5064030;28;20063;-78
2023/10/13 15:20:20;;;;;;;12.80;5.25;;;18.50;99.90;;;;;;5045536;28;20499;-77
2023/10/13 15:22:49;;;;;;;12.37;5.60;;;18.50;99.90;;;;;;5060729;28;20040;-76
2023/10/13 15:25:21;;;;;;;12.02;5.28;;;18.20;99.90;;;;;;5041483;28;20310;-77
2023/10/13 15:27:55;;;;;;;11.38;5.22;;;18.20;99.90;;;;;;5035517;28;20053;-77
2023/10/13 15:30:30;;;;;;;10.77;5.40;;;18.30;99.90;;;;;;5062653;28;20048;-77
2023/10/13 15:33:00;;;;;;;16.77;6.20;;;18.20;99.90;;;;;;5053166;28;20144;-77
2023/10/13 15:35:28;;;;;;;9.60;5.18;;;18.00;99.90;;;;;;5061041;28;20079;-77
2023/10/13 15:37:55;;;;;;;10.98;6.22;;;18.00;99.90;;;;;;5065635;28;20107;-77
2023/10/13 15:40:23;;;;;;;12.45;5.30;;;18.10;99.90;;;;;;5041013;28;20532;-77
2023/10/13 15:42:49;;;;;;;11.35;5.65;;;18.00;99.90;;;;;;5041388;28;20059;-77
2023/10/13 15:45:18;;;;;;;;;;;18.10;99.90;;;;;;5050779;28;20048;-77
2023/10/13 15:47:45;;;;;;;11.73;5.55;;;18.00;99.90;;;;;;5062954;28;19960;-77
2023/10/13 15:50:16;;;;;;;14.18;6.43;;;18.20;99.90;;;;;;5047932;28;20049;-77
2023/10/13 15:52:45;;;;;;;12.05;6.05;;;18.10;99.90;;;;;;5054184;28;20044;-77
2023/10/13 15:55:17;;;;;;;10.82;6.03;;;18.20;99.90;;;;;;5066376;28;20052;-77
2023/10/13 15:57:43;;;;;;;13.25;6.68;;;18.00;99.90;;;;;;5077234;28;20534;-76
2023/10/13 16:00:23;;;;;;;12.45;6.38;;;18.00;99.90;;;;;;5069294;28;20049;-77
2023/10/13 16:02:59;;;;;;;10.45;6.38;;;18.20;99.90;;;;;;5057723;28;20048;-77
2023/10/13 16:05:34;;;;;;;10.27;6.30;;;17.90;99.90;;;;;;5053007;28;20059;-78
2023/10/13 16:08:00;;;;;;;14.02;6.82;;;18.10;99.90;;;;;;5055640;28;20060;-77
2023/10/13 16:10:26;;;;;;;10.35;6.68;;;18.10;99.90;;;;;;5049584;28;20451;-77
2023/10/13 16:12:53;;;;;;;;;;;18.10;99.90;;;;;;5058220;28;20488;-77
2023/10/13 16:15:21;;;;;;;12.32;5.90;;;17.90;99.90;;;;;;5062151;28;20392;-77
2023/10/13 16:17:47;;;;;;;10.90;6.00;;;18.10;99.90;;;;;;5052350;28;20049;-77